AirNav   Pilot Hours Calculator
 
 724 users online  

8XS6 Mc Manus Field Airport
Tioga, Texas, USA

GOING TO TIOGA?


FAA INFORMATION EFFECTIVE 11 AUGUST 2022

Location

FAA Identifier: 8XS6
Lat/Long: 33-27-08.0000N 096-49-58.0000W
33-27.133333N 096-49.966667W
33.4522222,-96.8327778
(estimated)
Elevation: 695 ft. / 212 m (estimated)
Variation: 06E (1995)
From city: 5 miles E of TIOGA, TX
Time zone: UTC -5 (UTC -6 during Standard Time)
Zip code: 76271

Airport Operations

Airport use: CLOSED INDEFINITELY
Activation date: 02/1998
Control tower: no
ARTCC: FORT WORTH CENTER
FSS: FORT WORTH FLIGHT SERVICE STATION
Attendance: CONTINUOUS
Wind indicator: yes
Segmented circle: no

Airport Communications

WX AWOS-3 at GYI (18 nm NE): 118.775 (903-786-7790)

Nearby radio navigation aids

VOR radial/distance  VOR name  Freq  Var
BYPr254/30.4BONHAM VORTAC114.6006E
CVEr000/33.9COWBOY VOR/DME116.2006E
TTTr011/36.5MAVERICK VOR/DME113.1006E
FUZr021/38.0RANGER VORTAC115.7006E

 
NDB name  Hdg/Dist  Freq  Var  ID
DENISON194/23.934106EDNI -.. -. ..

Airport Services

Runway Information

Runway 18/36

Dimensions: 1450 x 90 ft. / 442 x 27 m
Surface: turf
RUNWAY 18  RUNWAY 36
Traffic pattern: leftleft

Airport Ownership and Management from official FAA records

Ownership: Privately-owned
Owner: MATT W MC MANUS
130 SCOGGINS RD
TIOGA, TX 76271
Phone 940-437-2474
Manager: MATT W MC MANUS
130 SCOGGINS RD
TIOGA, TX 76271
Phone 940-437-2474

Airport Operational Statistics

Aircraft based on the field: 1
Single engine airplanes: 1
    

Additional Remarks

FOR CD CTC FORT WORTH ARTCC AT 817-858-7584.
(ARPT STATUS) ARPT CLSD INDEFLY.

Instrument Procedures

There are no published instrument procedures at 8XS6.

Some nearby airports with instrument procedures:

KSWI - Sherman Municipal Airport (16 nm NE)
KGYI - North Texas Regional Airport/Perrin Field (18 nm NE)
KTKI - McKinney National Airport (21 nm SE)
KGLE - Gainesville Municipal Airport (22 nm NW)
KDTO - Denton Enterprise Airport (24 nm SW)
 
Loc | Ops | Rwys | IFR | FBO | Links
Com | Nav | Svcs | Stats | Notes

City of Fort Worth
 
Area around 8XS6 (Mc Manus Field Airport)
 
Road maps at: MapQuest Bing Google
 
Aerial photo
No photo
 
Sectional chart

 
Airport distance calculator
Flying to Mc Manus Field Airport? Find the distance to fly.

From to 8XS6

Sunrise and sunset
Times for 17-Aug-2022
 Local
(UTC-5)
 Zulu
(UTC)
Morning civil twilight06:2611:26
Sunrise06:5211:52
Sunset20:1101:11
Evening civil twilight20:3701:37

Current date and time
Zulu (UTC)  17-Aug-2022 05:37:29
Local (UTC-5)  17-Aug-2022 00:37:29
 
METAR
KGYI 
18nm NE 
170515Z AUTO 17007KT 10SM CLR 30/17 A2991 RMK AO2 T03040165 TSNO
KTKI 
20nm SE 
170453Z AUTO 19006KT 10SM CLR 28/19 A2989 RMK AO2 SLP112 T02780189
KGLE 
22nm NW 
170455Z AUTO 00000KT 10SM CLR 29/16 A2992 RMK AO2 T02860160
KDTO 
24nm SW 
170453Z AUTO 00000KT 10SM CLR 29/18 A2989 RMK AO2 SLP112 T02890178
KADS 
29nm S 
170515Z AUTO 00000KT 10SM CLR 32/17 A2991 RMK AO2 T03150167
KF00 
34nm E 
170455Z AUTO 22006KT 10SM CLR 29/17 A2990 RMK AO2 LTG DSNT W T02890169
KDFW 
34nm S 
170453Z 19006KT 10SM BKN250 31/16 A2988 RMK AO2 SLP107 T03110161
TAF
KDFW 
34nm S 
170248Z 1703/1806 19006KT P6SM BKN250 FM171500 32010KT P6SM SCT100 BKN250 FM172200 35010KT P6SM VCTS BKN100CB FM180300 02011KT P6SM SCT100 BKN250
KDAL 
36nm S 
170248Z 1703/1724 16007KT P6SM BKN250 FM171500 32010KT P6SM SCT100 BKN250 FM172200 35010KT P6SM VCTS BKN100CB
KAFW 
38nm SW 
170248Z 1703/1724 19007KT P6SM BKN250 FM171500 32010KT P6SM SCT100 BKN250 FM172200 35010KT P6SM VCTS BKN100CB
NOTAMs
Click for the latest NOTAMs
NOTAMs are issued by the DoD/FAA and will open in a separate window not controlled by AirNav.

 

 
 

Would you like to see your business listed on this page?

 If your business provides an interesting product or service to pilots, flight crews, aircraft, or users of the Mc Manus Field Airport, you should consider listing it here.  To start the listing process, click on the button below
 
Add a business
 

Other Pages about Mc Manus Field Airport

Update a link
 
Copyright © AirNav, LLC. All rights reserved. Privacy Policy  Contact